sensor_id;sensor_type;location;lat;lon;timestamp;P1;durP1;ratioP1;P2;durP2;ratioP2
50002;SDS011;35889;51.442;6.408;2023-04-25T00:00:14;0.80;;;0.80;;
50002;SDS011;35889;51.442;6.408;2023-04-25T00:02:40;0.80;;;0.80;;
50002;SDS011;35889;51.442;6.408;2023-04-25T00:05:06;0.70;;;0.70;;
50002;SDS011;35889;51.442;6.408;2023-04-25T00:07:32;0.90;;;0.90;;
50002;SDS011;35889;51.442;6.408;2023-04-25T00:09:58;0.80;;;0.80;;
50002;SDS011;35889;51.442;6.408;2023-04-25T00:12:24;0.80;;;0.80;;
50002;SDS011;35889;51.442;6.408;2023-04-25T00:14:49;0.80;;;0.80;;
50002;SDS011;35889;51.442;6.408;2023-04-25T00:17:15;0.80;;;0.80;;
50002;SDS011;35889;51.442;6.408;2023-04-25T00:19:44;0.90;;;0.90;;
50002;SDS011;35889;51.442;6.408;2023-04-25T00:22:11;0.80;;;0.80;;
50002;SDS011;35889;51.442;6.408;2023-04-25T00:24:37;0.80;;;0.80;;
50002;SDS011;35889;51.442;6.408;2023-04-25T00:27:02;0.80;;;0.80;;
50002;SDS011;35889;51.442;6.408;2023-04-25T00:29:28;0.80;;;0.80;;
50002;SDS011;35889;51.442;6.408;2023-04-25T00:31:54;0.80;;;0.80;;
50002;SDS011;35889;51.442;6.408;2023-04-25T00:34:19;0.80;;;0.80;;
50002;SDS011;35889;51.442;6.408;2023-04-25T00:36:45;0.77;;;0.77;;
50002;SDS011;35889;51.442;6.408;2023-04-25T00:39:11;0.80;;;0.80;;
50002;SDS011;35889;51.442;6.408;2023-04-25T00:41:36;0.80;;;0.80;;
50002;SDS011;35889;51.442;6.408;2023-04-25T00:44:02;0.75;;;0.75;;
50002;SDS011;35889;51.442;6.408;2023-04-25T00:46:29;0.80;;;0.80;;
50002;SDS011;35889;51.442;6.408;2023-04-25T00:48:55;0.80;;;0.80;;
50002;SDS011;35889;51.442;6.408;2023-04-25T00:51:21;0.80;;;0.80;;
50002;SDS011;35889;51.442;6.408;2023-04-25T00:53:47;0.80;;;0.80;;
50002;SDS011;35889;51.442;6.408;2023-04-25T00:56:14;0.70;;;0.70;;
50002;SDS011;35889;51.442;6.408;2023-04-25T00:58:40;0.70;;;0.70;;
50002;SDS011;35889;51.442;6.408;2023-04-25T01:01:07;0.80;;;0.80;;
50002;SDS011;35889;51.442;6.408;2023-04-25T01:03:33;0.80;;;0.80;;
50002;SDS011;35889;51.442;6.408;2023-04-25T01:06:01;0.80;;;0.80;;
50002;SDS011;35889;51.442;6.408;2023-04-25T01:08:27;0.73;;;0.73;;
50002;SDS011;35889;51.442;6.408;2023-04-25T01:10:53;0.77;;;0.77;;
50002;SDS011;35889;51.442;6.408;2023-04-25T01:13:18;0.80;;;0.80;;
50002;SDS011;35889;51.442;6.408;2023-04-25T01:15:46;0.70;;;0.70;;
50002;SDS011;35889;51.442;6.408;2023-04-25T01:18:12;0.80;;;0.80;;
50002;SDS011;35889;51.442;6.408;2023-04-25T01:20:38;0.80;;;0.80;;
50002;SDS011;35889;51.442;6.408;2023-04-25T01:23:03;0.75;;;0.75;;
50002;SDS011;35889;51.442;6.408;2023-04-25T01:25:30;0.80;;;0.80;;
50002;SDS011;35889;51.442;6.408;2023-04-25T01:27:56;0.70;;;0.70;;
50002;SDS011;35889;51.442;6.408;2023-04-25T01:30:22;0.80;;;0.80;;
50002;SDS011;35889;51.442;6.408;2023-04-25T01:32:47;0.70;;;0.70;;
50002;SDS011;35889;51.442;6.408;2023-04-25T01:35:13;0.80;;;0.80;;
50002;SDS011;35889;51.442;6.408;2023-04-25T01:37:39;0.80;;;0.80;;
50002;SDS011;35889;51.442;6.408;2023-04-25T01:40:07;0.70;;;0.70;;
50002;SDS011;35889;51.442;6.408;2023-04-25T01:42:34;0.70;;;0.70;;
50002;SDS011;35889;51.442;6.408;2023-04-25T01:45:01;0.80;;;0.80;;
50002;SDS011;35889;51.442;6.408;2023-04-25T01:47:27;0.70;;;0.70;;
50002;SDS011;35889;51.442;6.408;2023-04-25T01:49:53;0.70;;;0.70;;
50002;SDS011;35889;51.442;6.408;2023-04-25T01:52:19;0.70;;;0.70;;
50002;SDS011;35889;51.442;6.408;2023-04-25T01:54:45;0.70;;;0.70;;
50002;SDS011;35889;51.442;6.408;2023-04-25T01:57:12;0.70;;;0.70;;
50002;SDS011;35889;51.442;6.408;2023-04-25T01:59:40;0.80;;;0.80;;
50002;SDS011;35889;51.442;6.408;2023-04-25T02:02:15;0.70;;;0.70;;
50002;SDS011;35889;51.442;6.408;2023-04-25T02:04:41;0.80;;;0.80;;
50002;SDS011;35889;51.442;6.408;2023-04-25T02:07:07;0.70;;;0.70;;
50002;SDS011;35889;51.442;6.408;2023-04-25T02:09:47;0.60;;;0.60;;
50002;SDS011;35889;51.442;6.408;2023-04-25T02:12:12;0.70;;;0.70;;
50002;SDS011;35889;51.442;6.408;2023-04-25T02:14:59;0.80;;;0.80;;
50002;SDS011;35889;51.442;6.408;2023-04-25T02:17:33;0.70;;;0.70;;
50002;SDS011;35889;51.442;6.408;2023-04-25T02:19:59;0.70;;;0.70;;
50002;SDS011;35889;51.442;6.408;2023-04-25T02:22:24;0.70;;;0.70;;
50002;SDS011;35889;51.442;6.408;2023-04-25T02:24:52;0.80;;;0.80;;
50002;SDS011;35889;51.442;6.408;2023-04-25T02:27:19;0.70;;;0.70;;
50002;SDS011;35889;51.442;6.408;2023-04-25T02:29:45;0.73;;;0.73;;
50002;SDS011;35889;51.442;6.408;2023-04-25T02:32:10;0.70;;;0.70;;
50002;SDS011;35889;51.442;6.408;2023-04-25T02:34:36;0.70;;;0.70;;
50002;SDS011;35889;51.442;6.408;2023-04-25T02:37:01;0.70;;;0.70;;
50002;SDS011;35889;51.442;6.408;2023-04-25T02:39:27;0.80;;;0.80;;
50002;SDS011;35889;51.442;6.408;2023-04-25T02:41:54;0.80;;;0.80;;
50002;SDS011;35889;51.442;6.408;2023-04-25T02:44:20;0.80;;;0.80;;
50002;SDS011;35889;51.442;6.408;2023-04-25T02:46:46;0.80;;;0.80;;
50002;SDS011;35889;51.442;6.408;2023-04-25T02:49:11;0.80;;;0.80;;
50002;SDS011;35889;51.442;6.408;2023-04-25T02:51:37;0.80;;;0.80;;
50002;SDS011;35889;51.442;6.408;2023-04-25T02:54:03;0.73;;;0.73;;
50002;SDS011;35889;51.442;6.408;2023-04-25T02:56:32;0.80;;;0.80;;
50002;SDS011;35889;51.442;6.408;2023-04-25T02:58:58;0.80;;;0.80;;
50002;SDS011;35889;51.442;6.408;2023-04-25T03:01:23;0.70;;;0.70;;
50002;SDS011;35889;51.442;6.408;2023-04-25T03:03:49;0.70;;;0.70;;
50002;SDS011;35889;51.442;6.408;2023-04-25T03:06:14;0.80;;;0.80;;
50002;SDS011;35889;51.442;6.408;2023-04-25T03:08:40;0.70;;;0.70;;
50002;SDS011;35889;51.442;6.408;2023-04-25T03:11:06;0.70;;;0.70;;
50002;SDS011;35889;51.442;6.408;2023-04-25T03:13:32;0.70;;;0.70;;
50002;SDS011;35889;51.442;6.408;2023-04-25T03:15:58;0.80;;;0.80;;
50002;SDS011;35889;51.442;6.408;2023-04-25T03:18:24;0.80;;;0.80;;
50002;SDS011;35889;51.442;6.408;2023-04-25T03:20:50;0.80;;;0.80;;
50002;SDS011;35889;51.442;6.408;2023-04-25T03:23:15;0.80;;;0.80;;
50002;SDS011;35889;51.442;6.408;2023-04-25T03:25:41;0.70;;;0.70;;
50002;SDS011;35889;51.442;6.408;2023-04-25T03:28:07;0.70;;;0.70;;
50002;SDS011;35889;51.442;6.408;2023-04-25T03:30:33;0.80;;;0.80;;
50002;SDS011;35889;51.442;6.408;2023-04-25T03:32:59;0.70;;;0.70;;
50002;SDS011;35889;51.442;6.408;2023-04-25T03:35:24;0.80;;;0.80;;
50002;SDS011;35889;51.442;6.408;2023-04-25T03:37:50;0.73;;;0.73;;
50002;SDS011;35889;51.442;6.408;2023-04-25T03:40:21;0.80;;;0.80;;
50002;SDS011;35889;51.442;6.408;2023-04-25T03:43:06;0.80;;;0.80;;
50002;SDS011;35889;51.442;6.408;2023-04-25T03:45:33;0.90;;;0.90;;
50002;SDS011;35889;51.442;6.408;2023-04-25T03:47:58;0.77;;;0.77;;
50002;SDS011;35889;51.442;6.408;2023-04-25T03:50:26;0.80;;;0.80;;
50002;SDS011;35889;51.442;6.408;2023-04-25T03:52:51;0.70;;;0.70;;
50002;SDS011;35889;51.442;6.408;2023-04-25T03:55:17;0.85;;;0.85;;
50002;SDS011;35889;51.442;6.408;2023-04-25T03:57:43;0.80;;;0.80;;
50002;SDS011;35889;51.442;6.408;2023-04-25T04:00:08;0.90;;;0.90;;
50002;SDS011;35889;51.442;6.408;2023-04-25T04:02:40;0.73;;;0.73;;
50002;SDS011;35889;51.442;6.408;2023-04-25T04:05:07;0.70;;;0.70;;
50002;SDS011;35889;51.442;6.408;2023-04-25T04:07:36;0.90;;;0.90;;
50002;SDS011;35889;51.442;6.408;2023-04-25T04:12:36;0.80;;;0.80;;
50002;SDS011;35889;51.442;6.408;2023-04-25T04:15:04;0.80;;;0.80;;
50002;SDS011;35889;51.442;6.408;2023-04-25T04:17:32;0.80;;;0.80;;
50002;SDS011;35889;51.442;6.408;2023-04-25T04:19:57;0.80;;;0.80;;
50002;SDS011;35889;51.442;6.408;2023-04-25T04:22:23;0.80;;;0.80;;
50002;SDS011;35889;51.442;6.408;2023-04-25T04:24:51;0.80;;;0.80;;
50002;SDS011;35889;51.442;6.408;2023-04-25T04:27:34;0.80;;;0.80;;
50002;SDS011;35889;51.442;6.408;2023-04-25T04:30:14;0.70;;;0.70;;
50002;SDS011;35889;51.442;6.408;2023-04-25T04:32:55;0.70;;;0.70;;
50002;SDS011;35889;51.442;6.408;2023-04-25T04:35:21;0.80;;;0.80;;
50002;SDS011;35889;51.442;6.408;2023-04-25T04:37:47;0.80;;;0.80;;
50002;SDS011;35889;51.442;6.408;2023-04-25T04:40:15;0.80;;;0.80;;
50002;SDS011;35889;51.442;6.408;2023-04-25T04:42:48;0.80;;;0.80;;
50002;SDS011;35889;51.442;6.408;2023-04-25T04:45:33;0.80;;;0.80;;
50002;SDS011;35889;51.442;6.408;2023-04-25T04:48:20;0.90;;;0.90;;
50002;SDS011;35889;51.442;6.408;2023-04-25T04:51:03;0.80;;;0.80;;
50002;SDS011;35889;51.442;6.408;2023-04-25T04:53:47;0.80;;;0.80;;
50002;SDS011;35889;51.442;6.408;2023-04-25T04:56:21;0.70;;;0.70;;
50002;SDS011;35889;51.442;6.408;2023-04-25T04:58:48;0.80;;;0.80;;
50002;SDS011;35889;51.442;6.408;2023-04-25T05:01:36;0.80;;;0.80;;
50002;SDS011;35889;51.442;6.408;2023-04-25T05:04:10;0.80;;;0.80;;
50002;SDS011;35889;51.442;6.408;2023-04-25T05:06:42;0.90;;;0.90;;
50002;SDS011;35889;51.442;6.408;2023-04-25T05:09:28;0.77;;;0.77;;
50002;SDS011;35889;51.442;6.408;2023-04-25T05:12:12;0.80;;;0.80;;
50002;SDS011;35889;51.442;6.408;2023-04-25T05:14:57;0.70;;;0.70;;
50002;SDS011;35889;51.442;6.408;2023-04-25T05:17:51;0.80;;;0.80;;
50002;SDS011;35889;51.442;6.408;2023-04-25T05:20:30;0.70;;;0.70;;
50002;SDS011;35889;51.442;6.408;2023-04-25T05:23:10;0.80;;;0.80;;
50002;SDS011;35889;51.442;6.408;2023-04-25T05:25:46;0.80;;;0.80;;
50002;SDS011;35889;51.442;6.408;2023-04-25T05:28:19;0.70;;;0.70;;
50002;SDS011;35889;51.442;6.408;2023-04-25T05:31:10;0.90;;;0.90;;
50002;SDS011;35889;51.442;6.408;2023-04-25T05:33:55;0.80;;;0.80;;
50002;SDS011;35889;51.442;6.408;2023-04-25T05:36:23;0.70;;;0.70;;
50002;SDS011;35889;51.442;6.408;2023-04-25T05:38:49;0.80;;;0.80;;
50002;SDS011;35889;51.442;6.408;2023-04-25T05:41:21;0.90;;;0.90;;
50002;SDS011;35889;51.442;6.408;2023-04-25T05:44:06;0.70;;;0.70;;
50002;SDS011;35889;51.442;6.408;2023-04-25T05:46:38;0.70;;;0.70;;
50002;SDS011;35889;51.442;6.408;2023-04-25T05:52:17;0.73;;;0.73;;
50002;SDS011;35889;51.442;6.408;2023-04-25T05:55:06;0.80;;;0.80;;
50002;SDS011;35889;51.442;6.408;2023-04-25T05:57:31;0.70;;;0.70;;
50002;SDS011;35889;51.442;6.408;2023-04-25T05:59:57;0.88;;;0.88;;
50002;SDS011;35889;51.442;6.408;2023-04-25T06:02:38;0.80;;;0.80;;
50002;SDS011;35889;51.442;6.408;2023-04-25T06:05:04;0.80;;;0.80;;
50002;SDS011;35889;51.442;6.408;2023-04-25T06:07:30;0.80;;;0.80;;
50002;SDS011;35889;51.442;6.408;2023-04-25T06:09:56;0.90;;;0.90;;
50002;SDS011;35889;51.442;6.408;2023-04-25T06:12:21;0.80;;;0.80;;
50002;SDS011;35889;51.442;6.408;2023-04-25T06:14:48;0.80;;;0.80;;
50002;SDS011;35889;51.442;6.408;2023-04-25T06:17:14;0.80;;;0.80;;
50002;SDS011;35889;51.442;6.408;2023-04-25T06:19:39;0.90;;;0.90;;
50002;SDS011;35889;51.442;6.408;2023-04-25T06:22:07;0.70;;;0.70;;
50002;SDS011;35889;51.442;6.408;2023-04-25T06:24:34;0.73;;;0.73;;
50002;SDS011;35889;51.442;6.408;2023-04-25T06:27:02;0.80;;;0.80;;
50002;SDS011;35889;51.442;6.408;2023-04-25T06:29:28;0.80;;;0.80;;
50002;SDS011;35889;51.442;6.408;2023-04-25T06:31:53;0.80;;;0.80;;
50002;SDS011;35889;51.442;6.408;2023-04-25T06:34:20;0.80;;;0.80;;
50002;SDS011;35889;51.442;6.408;2023-04-25T06:36:46;0.70;;;0.70;;
50002;SDS011;35889;51.442;6.408;2023-04-25T06:39:14;0.70;;;0.70;;
50002;SDS011;35889;51.442;6.408;2023-04-25T06:41:39;0.80;;;0.80;;
50002;SDS011;35889;51.442;6.408;2023-04-25T06:44:13;0.80;;;0.80;;
50002;SDS011;35889;51.442;6.408;2023-04-25T06:46:47;0.75;;;0.75;;
50002;SDS011;35889;51.442;6.408;2023-04-25T06:49:13;0.80;;;0.80;;
50002;SDS011;35889;51.442;6.408;2023-04-25T06:51:40;0.80;;;0.80;;
50002;SDS011;35889;51.442;6.408;2023-04-25T06:54:06;0.90;;;0.90;;
50002;SDS011;35889;51.442;6.408;2023-04-25T06:56:41;0.80;;;0.80;;
50002;SDS011;35889;51.442;6.408;2023-04-25T06:59:11;0.73;;;0.73;;
50002;SDS011;35889;51.442;6.408;2023-04-25T07:01:39;0.80;;;0.80;;
50002;SDS011;35889;51.442;6.408;2023-04-25T07:06:39;0.80;;;0.80;;
50002;SDS011;35889;51.442;6.408;2023-04-25T07:09:08;0.80;;;0.80;;
50002;SDS011;35889;51.442;6.408;2023-04-25T07:11:35;0.80;;;0.80;;
50002;SDS011;35889;51.442;6.408;2023-04-25T07:14:01;0.80;;;0.80;;
50002;SDS011;35889;51.442;6.408;2023-04-25T07:16:27;0.80;;;0.80;;
50002;SDS011;35889;51.442;6.408;2023-04-25T07:18:52;0.90;;;0.90;;
50002;SDS011;35889;51.442;6.408;2023-04-25T07:21:18;0.80;;;0.80;;
50002;SDS011;35889;51.442;6.408;2023-04-25T07:23:45;0.80;;;0.80;;
50002;SDS011;35889;51.442;6.408;2023-04-25T07:26:15;0.90;;;0.90;;
50002;SDS011;35889;51.442;6.408;2023-04-25T07:29:01;0.82;;;0.82;;
50002;SDS011;35889;51.442;6.408;2023-04-25T07:31:26;0.80;;;0.80;;
50002;SDS011;35889;51.442;6.408;2023-04-25T07:33:52;0.90;;;0.90;;
50002;SDS011;35889;51.442;6.408;2023-04-25T07:36:17;0.90;;;0.90;;
50002;SDS011;35889;51.442;6.408;2023-04-25T07:38:44;0.90;;;0.90;;
50002;SDS011;35889;51.442;6.408;2023-04-25T07:41:09;0.80;;;0.80;;
50002;SDS011;35889;51.442;6.408;2023-04-25T07:43:35;0.80;;;0.80;;
50002;SDS011;35889;51.442;6.408;2023-04-25T07:46:02;0.80;;;0.80;;
50002;SDS011;35889;51.442;6.408;2023-04-25T07:48:31;0.80;;;0.80;;
50002;SDS011;35889;51.442;6.408;2023-04-25T07:50:57;0.80;;;0.80;;
50002;SDS011;35889;51.442;6.408;2023-04-25T07:53:23;0.90;;;0.90;;
50002;SDS011;35889;51.442;6.408;2023-04-25T07:55:53;0.75;;;0.75;;
50002;SDS011;35889;51.442;6.408;2023-04-25T07:58:19;0.90;;;0.90;;
50002;SDS011;35889;51.442;6.408;2023-04-25T08:00:48;0.80;;;0.80;;
50002;SDS011;35889;51.442;6.408;2023-04-25T08:03:37;0.90;;;0.90;;
50002;SDS011;35889;51.442;6.408;2023-04-25T08:06:08;0.70;;;0.70;;
50002;SDS011;35889;51.442;6.408;2023-04-25T08:08:41;0.80;;;0.80;;
50002;SDS011;35889;51.442;6.408;2023-04-25T08:11:09;0.80;;;0.80;;
50002;SDS011;35889;51.442;6.408;2023-04-25T08:13:35;0.90;;;0.90;;
50002;SDS011;35889;51.442;6.408;2023-04-25T08:16:01;0.90;;;0.90;;
50002;SDS011;35889;51.442;6.408;2023-04-25T08:18:26;0.90;;;0.90;;
50002;SDS011;35889;51.442;6.408;2023-04-25T08:20:52;0.88;;;0.88;;
50002;SDS011;35889;51.442;6.408;2023-04-25T08:23:17;0.88;;;0.88;;
50002;SDS011;35889;51.442;6.408;2023-04-25T08:25:50;0.90;;;0.90;;
50002;SDS011;35889;51.442;6.408;2023-04-25T08:28:18;0.80;;;0.80;;
50002;SDS011;35889;51.442;6.408;2023-04-25T08:30:45;0.80;;;0.80;;
50002;SDS011;35889;51.442;6.408;2023-04-25T08:33:12;0.80;;;0.80;;
50002;SDS011;35889;51.442;6.408;2023-04-25T08:36:00;0.80;;;0.80;;
50002;SDS011;35889;51.442;6.408;2023-04-25T08:38:27;0.90;;;0.90;;
50002;SDS011;35889;51.442;6.408;2023-04-25T08:40:52;0.90;;;0.90;;
50002;SDS011;35889;51.442;6.408;2023-04-25T08:43:21;0.80;;;0.80;;
50002;SDS011;35889;51.442;6.408;2023-04-25T08:45:48;0.90;;;0.90;;
50002;SDS011;35889;51.442;6.408;2023-04-25T08:48:28;0.80;;;0.80;;
50002;SDS011;35889;51.442;6.408;2023-04-25T08:50:57;0.80;;;0.80;;
50002;SDS011;35889;51.442;6.408;2023-04-25T08:53:27;0.90;;;0.90;;
50002;SDS011;35889;51.442;6.408;2023-04-25T08:55:57;0.80;;;0.80;;
50002;SDS011;35889;51.442;6.408;2023-04-25T08:58:23;0.80;;;0.80;;
50002;SDS011;35889;51.442;6.408;2023-04-25T09:00:50;0.90;;;0.90;;
50002;SDS011;35889;51.442;6.408;2023-04-25T09:03:19;0.90;;;0.90;;
50002;SDS011;35889;51.442;6.408;2023-04-25T09:05:46;0.80;;;0.80;;
50002;SDS011;35889;51.442;6.408;2023-04-25T09:08:14;0.80;;;0.80;;
50002;SDS011;35889;51.442;6.408;2023-04-25T09:10:40;0.80;;;0.80;;
50002;SDS011;35889;51.442;6.408;2023-04-25T09:15:49;0.80;;;0.80;;
50002;SDS011;35889;51.442;6.408;2023-04-25T09:18:39;0.80;;;0.80;;
50002;SDS011;35889;51.442;6.408;2023-04-25T09:21:06;0.80;;;0.80;;
50002;SDS011;35889;51.442;6.408;2023-04-25T09:23:44;0.90;;;0.90;;
50002;SDS011;35889;51.442;6.408;2023-04-25T09:26:15;0.90;;;0.90;;
50002;SDS011;35889;51.442;6.408;2023-04-25T09:28:45;0.80;;;0.80;;
50002;SDS011;35889;51.442;6.408;2023-04-25T09:31:22;0.90;;;0.90;;
50002;SDS011;35889;51.442;6.408;2023-04-25T09:34:00;0.90;;;0.90;;
50002;SDS011;35889;51.442;6.408;2023-04-25T09:36:27;0.90;;;0.90;;
50002;SDS011;35889;51.442;6.408;2023-04-25T09:39:02;0.90;;;0.90;;
50002;SDS011;35889;51.442;6.408;2023-04-25T09:41:31;0.85;;;0.85;;
50002;SDS011;35889;51.442;6.408;2023-04-25T09:44:00;0.80;;;0.80;;
50002;SDS011;35889;51.442;6.408;2023-04-25T09:46:33;0.90;;;0.90;;
50002;SDS011;35889;51.442;6.408;2023-04-25T09:49:05;0.90;;;0.90;;
50002;SDS011;35889;51.442;6.408;2023-04-25T09:51:36;0.90;;;0.90;;
50002;SDS011;35889;51.442;6.408;2023-04-25T09:54:04;0.93;;;0.93;;
50002;SDS011;35889;51.442;6.408;2023-04-25T09:56:40;0.80;;;0.80;;
50002;SDS011;35889;51.442;6.408;2023-04-25T09:59:06;0.80;;;0.80;;
50002;SDS011;35889;51.442;6.408;2023-04-25T10:01:34;0.80;;;0.80;;
50002;SDS011;35889;51.442;6.408;2023-04-25T10:04:08;0.90;;;0.90;;
50002;SDS011;35889;51.442;6.408;2023-04-25T10:07:05;0.80;;;0.80;;
50002;SDS011;35889;51.442;6.408;2023-04-25T10:09:31;0.80;;;0.80;;
50002;SDS011;35889;51.442;6.408;2023-04-25T10:11:59;0.80;;;0.80;;
50002;SDS011;35889;51.442;6.408;2023-04-25T10:14:25;0.90;;;0.90;;
50002;SDS011;35889;51.442;6.408;2023-04-25T10:16:51;0.90;;;0.90;;
50002;SDS011;35889;51.442;6.408;2023-04-25T10:19:19;0.93;;;0.93;;
50002;SDS011;35889;51.442;6.408;2023-04-25T10:21:55;0.90;;;0.90;;
50002;SDS011;35889;51.442;6.408;2023-04-25T10:24:42;0.80;;;0.80;;
50002;SDS011;35889;51.442;6.408;2023-04-25T10:27:08;0.80;;;0.80;;
50002;SDS011;35889;51.442;6.408;2023-04-25T10:29:34;0.80;;;0.80;;
50002;SDS011;35889;51.442;6.408;2023-04-25T10:32:00;0.80;;;0.80;;
50002;SDS011;35889;51.442;6.408;2023-04-25T10:37:10;0.85;;;0.85;;
50002;SDS011;35889;51.442;6.408;2023-04-25T10:39:37;0.90;;;0.90;;
50002;SDS011;35889;51.442;6.408;2023-04-25T10:42:08;0.80;;;0.80;;
50002;SDS011;35889;51.442;6.408;2023-04-25T10:44:34;0.90;;;0.90;;
50002;SDS011;35889;51.442;6.408;2023-04-25T10:47:02;0.90;;;0.90;;
50002;SDS011;35889;51.442;6.408;2023-04-25T10:49:29;0.90;;;0.90;;
50002;SDS011;35889;51.442;6.408;2023-04-25T10:52:18;0.90;;;0.90;;
50002;SDS011;35889;51.442;6.408;2023-04-25T11:00:14;0.90;;;0.90;;
50002;SDS011;35889;51.442;6.408;2023-04-25T11:02:44;0.80;;;0.80;;
50002;SDS011;35889;51.442;6.408;2023-04-25T11:05:20;0.80;;;0.80;;
50002;SDS011;35889;51.442;6.408;2023-04-25T11:07:56;0.80;;;0.80;;
50002;SDS011;35889;51.442;6.408;2023-04-25T11:10:29;0.90;;;0.90;;
50002;SDS011;35889;51.442;6.408;2023-04-25T11:12:56;0.90;;;0.90;;
50002;SDS011;35889;51.442;6.408;2023-04-25T11:15:22;0.90;;;0.90;;
50002;SDS011;35889;51.442;6.408;2023-04-25T11:17:47;0.80;;;0.80;;
50002;SDS011;35889;51.442;6.408;2023-04-25T11:20:13;0.80;;;0.80;;
50002;SDS011;35889;51.442;6.408;2023-04-25T11:22:40;0.90;;;0.90;;
50002;SDS011;35889;51.442;6.408;2023-04-25T11:25:07;0.80;;;0.80;;
50002;SDS011;35889;51.442;6.408;2023-04-25T11:27:33;0.80;;;0.80;;
50002;SDS011;35889;51.442;6.408;2023-04-25T11:30:09;0.80;;;0.80;;
50002;SDS011;35889;51.442;6.408;2023-04-25T11:32:35;0.90;;;0.90;;
50002;SDS011;35889;51.442;6.408;2023-04-25T11:35:01;0.90;;;0.90;;
50002;SDS011;35889;51.442;6.408;2023-04-25T11:37:26;0.90;;;0.90;;
50002;SDS011;35889;51.442;6.408;2023-04-25T11:39:52;0.85;;;0.85;;
50002;SDS011;35889;51.442;6.408;2023-04-25T11:42:17;0.90;;;0.90;;
50002;SDS011;35889;51.442;6.408;2023-04-25T11:44:42;0.90;;;0.90;;
50002;SDS011;35889;51.442;6.408;2023-04-25T11:47:08;0.88;;;0.88;;
50002;SDS011;35889;51.442;6.408;2023-04-25T11:49:34;0.90;;;0.90;;
50002;SDS011;35889;51.442;6.408;2023-04-25T11:52:00;0.90;;;0.90;;
50002;SDS011;35889;51.442;6.408;2023-04-25T11:54:26;0.80;;;0.80;;
50002;SDS011;35889;51.442;6.408;2023-04-25T11:56:51;0.90;;;0.90;;
50002;SDS011;35889;51.442;6.408;2023-04-25T11:59:17;0.85;;;0.85;;
50002;SDS011;35889;51.442;6.408;2023-04-25T12:01:48;0.82;;;0.82;;
50002;SDS011;35889;51.442;6.408;2023-04-25T12:04:15;0.80;;;0.80;;
50002;SDS011;35889;51.442;6.408;2023-04-25T12:06:42;0.80;;;0.80;;
50002;SDS011;35889;51.442;6.408;2023-04-25T12:09:09;0.80;;;0.80;;
50002;SDS011;35889;51.442;6.408;2023-04-25T12:11:45;0.80;;;0.80;;
50002;SDS011;35889;51.442;6.408;2023-04-25T12:14:19;0.80;;;0.80;;
50002;SDS011;35889;51.442;6.408;2023-04-25T12:16:49;0.82;;;0.82;;
50002;SDS011;35889;51.442;6.408;2023-04-25T12:19:16;0.80;;;0.80;;
50002;SDS011;35889;51.442;6.408;2023-04-25T12:21:42;0.80;;;0.80;;
50002;SDS011;35889;51.442;6.408;2023-04-25T12:24:15;0.85;;;0.85;;
50002;SDS011;35889;51.442;6.408;2023-04-25T12:27:24;0.80;;;0.80;;
50002;SDS011;35889;51.442;6.408;2023-04-25T12:29:53;0.80;;;0.80;;
50002;SDS011;35889;51.442;6.408;2023-04-25T12:32:19;0.80;;;0.80;;
50002;SDS011;35889;51.442;6.408;2023-04-25T12:34:45;0.80;;;0.80;;
50002;SDS011;35889;51.442;6.408;2023-04-25T12:37:10;0.80;;;0.80;;
50002;SDS011;35889;51.442;6.408;2023-04-25T12:39:36;0.80;;;0.80;;
50002;SDS011;35889;51.442;6.408;2023-04-25T12:42:01;0.80;;;0.80;;
50002;SDS011;35889;51.442;6.408;2023-04-25T12:44:28;0.80;;;0.80;;
50002;SDS011;35889;51.442;6.408;2023-04-25T12:46:53;0.82;;;0.82;;
50002;SDS011;35889;51.442;6.408;2023-04-25T12:49:19;0.80;;;0.80;;
50002;SDS011;35889;51.442;6.408;2023-04-25T12:51:45;0.80;;;0.80;;
50002;SDS011;35889;51.442;6.408;2023-04-25T12:54:11;0.77;;;0.77;;
50002;SDS011;35889;51.442;6.408;2023-04-25T12:56:37;0.88;;;0.88;;
50002;SDS011;35889;51.442;6.408;2023-04-25T12:59:03;0.80;;;0.80;;
50002;SDS011;35889;51.442;6.408;2023-04-25T13:01:29;0.80;;;0.80;;
50002;SDS011;35889;51.442;6.408;2023-04-25T13:03:55;0.85;;;0.85;;
50002;SDS011;35889;51.442;6.408;2023-04-25T13:06:21;0.80;;;0.80;;
50002;SDS011;35889;51.442;6.408;2023-04-25T13:08:47;0.80;;;0.80;;
50002;SDS011;35889;51.442;6.408;2023-04-25T13:11:12;0.80;;;0.80;;
50002;SDS011;35889;51.442;6.408;2023-04-25T13:13:40;0.80;;;0.80;;
50002;SDS011;35889;51.442;6.408;2023-04-25T13:16:06;0.90;;;0.90;;
50002;SDS011;35889;51.442;6.408;2023-04-25T13:18:33;0.80;;;0.80;;
50002;SDS011;35889;51.442;6.408;2023-04-25T13:20:59;0.80;;;0.80;;
50002;SDS011;35889;51.442;6.408;2023-04-25T13:23:25;0.90;;;0.90;;
50002;SDS011;35889;51.442;6.408;2023-04-25T13:25:51;0.80;;;0.80;;
50002;SDS011;35889;51.442;6.408;2023-04-25T13:28:17;0.80;;;0.80;;
50002;SDS011;35889;51.442;6.408;2023-04-25T13:30:42;0.80;;;0.80;;
50002;SDS011;35889;51.442;6.408;2023-04-25T13:33:08;0.80;;;0.80;;
50002;SDS011;35889;51.442;6.408;2023-04-25T13:35:34;0.90;;;0.90;;
50002;SDS011;35889;51.442;6.408;2023-04-25T13:38:00;0.80;;;0.80;;
50002;SDS011;35889;51.442;6.408;2023-04-25T13:40:26;0.80;;;0.80;;
50002;SDS011;35889;51.442;6.408;2023-04-25T13:42:52;0.90;;;0.90;;
50002;SDS011;35889;51.442;6.408;2023-04-25T13:45:18;1.00;;;1.00;;
50002;SDS011;35889;51.442;6.408;2023-04-25T13:47:43;0.90;;;0.90;;
50002;SDS011;35889;51.442;6.408;2023-04-25T13:50:09;0.80;;;0.80;;
50002;SDS011;35889;51.442;6.408;2023-04-25T13:52:35;0.80;;;0.80;;
50002;SDS011;35889;51.442;6.408;2023-04-25T13:55:00;0.80;;;0.80;;
50002;SDS011;35889;51.442;6.408;2023-04-25T13:57:28;0.80;;;0.80;;
50002;SDS011;35889;51.442;6.408;2023-04-25T13:59:53;0.80;;;0.80;;
50002;SDS011;35889;51.442;6.408;2023-04-25T14:02:19;0.80;;;0.80;;
50002;SDS011;35889;51.442;6.408;2023-04-25T14:04:44;1.20;;;1.20;;
50002;SDS011;35889;51.442;6.408;2023-04-25T14:07:10;1.20;;;1.20;;
50002;SDS011;35889;51.442;6.408;2023-04-25T14:09:36;0.90;;;0.90;;
50002;SDS011;35889;51.442;6.408;2023-04-25T14:12:02;0.90;;;0.90;;
50002;SDS011;35889;51.442;6.408;2023-04-25T14:14:27;0.90;;;0.90;;
50002;SDS011;35889;51.442;6.408;2023-04-25T14:16:52;0.80;;;0.80;;
50002;SDS011;35889;51.442;6.408;2023-04-25T14:19:19;0.75;;;0.75;;
50002;SDS011;35889;51.442;6.408;2023-04-25T14:21:46;0.80;;;0.80;;
50002;SDS011;35889;51.442;6.408;2023-04-25T14:24:11;0.80;;;0.80;;
50002;SDS011;35889;51.442;6.408;2023-04-25T14:26:38;0.80;;;0.80;;
50002;SDS011;35889;51.442;6.408;2023-04-25T14:29:04;0.80;;;0.80;;
50002;SDS011;35889;51.442;6.408;2023-04-25T14:31:30;0.80;;;0.80;;
50002;SDS011;35889;51.442;6.408;2023-04-25T14:33:56;0.80;;;0.80;;
50002;SDS011;35889;51.442;6.408;2023-04-25T14:36:21;0.80;;;0.80;;
50002;SDS011;35889;51.442;6.408;2023-04-25T14:38:47;0.80;;;0.80;;
50002;SDS011;35889;51.442;6.408;2023-04-25T14:41:12;0.80;;;0.80;;
50002;SDS011;35889;51.442;6.408;2023-04-25T14:43:38;0.90;;;0.90;;
50002;SDS011;35889;51.442;6.408;2023-04-25T14:46:05;1.20;;;1.20;;
50002;SDS011;35889;51.442;6.408;2023-04-25T14:48:31;1.20;;;1.20;;
50002;SDS011;35889;51.442;6.408;2023-04-25T14:50:57;1.20;;;1.20;;
50002;SDS011;35889;51.442;6.408;2023-04-25T14:53:22;1.20;;;1.20;;
50002;SDS011;35889;51.442;6.408;2023-04-25T14:55:48;1.20;;;1.20;;
50002;SDS011;35889;51.442;6.408;2023-04-25T14:58:14;1.20;;;1.20;;
50002;SDS011;35889;51.442;6.408;2023-04-25T15:00:39;1.20;;;1.20;;
50002;SDS011;35889;51.442;6.408;2023-04-25T15:03:05;1.20;;;1.20;;
50002;SDS011;35889;51.442;6.408;2023-04-25T15:05:32;1.20;;;1.20;;
50002;SDS011;35889;51.442;6.408;2023-04-25T15:07:58;1.20;;;1.20;;
50002;SDS011;35889;51.442;6.408;2023-04-25T15:10:23;1.20;;;1.20;;
50002;SDS011;35889;51.442;6.408;2023-04-25T15:12:49;1.20;;;1.20;;
50002;SDS011;35889;51.442;6.408;2023-04-25T15:15:15;1.20;;;1.20;;